Time;durP1;ratioP1;P1;durP2;ratioP2;P2;SDS_P1;SDS_P2;PMS_P1;PMS_P2;Temp;Humidity;BMP_temperature;BMP_pressure;BME280_temperature;BME280_humidity;BME280_pressure;Samples;Min_cycle;Max_cycle;Signal;HPM_P1;HPM_P2
2022/06/25 00:08:29;;;;;;;;;;;;;;;17.32;100.00;100786.31;2613213;54;20416;-59
2022/06/25 00:18:31;;;;;;;;;;;;;;;17.28;100.00;100797.75;2613044;36;19950;-57
2022/06/25 00:28:16;;;;;;;;;;;;;;;17.22;100.00;100806.66;2613008;36;20343;-57
2022/06/25 00:48:22;;;;;;;;;;;;;;;17.08;100.00;100811.84;2610710;36;19969;-57
2022/06/25 00:50:51;;;;;;;;;;;;;;;17.12;100.00;100806.88;2613050;36;20480;-58
2022/06/25 00:53:20;;;;;;;;;;;;;;;17.14;100.00;100802.13;2610534;54;19959;-58
2022/06/25 00:55:49;;;;;;;;;;;;;;;17.16;100.00;100803.63;2613762;36;20473;-58
2022/06/25 01:00:56;;;;;;;;;;;;;;;17.14;100.00;100813.00;2610597;36;20344;-62
2022/06/25 01:06:06;;;;;;;;;;;;;;;17.06;100.00;100816.59;2612277;39;20355;-63
2022/06/25 01:08:35;;;;;;;;;;;;;;;17.04;100.00;100815.94;2612116;36;20368;-58
2022/06/25 01:11:04;;;;;;;;;;;;;;;17.05;100.00;100825.81;2610312;36;19954;-59
2022/06/25 01:16:06;;;;;;;;;;;;;;;17.03;100.00;100825.13;2610188;36;19957;-60
2022/06/25 01:18:35;;;;;;;;;;;;;;;17.05;100.00;100825.81;2608547;36;19954;-59
2022/06/25 01:21:06;;;;;;;;;;;;;;;17.06;100.00;100823.91;2610278;36;21479;-58
2022/06/25 01:23:38;;;;;;;;;;;;;;;17.05;100.00;100823.09;2609587;36;19962;-62
2022/06/25 01:26:06;;;;;;;;;;;;;;;17.08;100.00;100827.31;2610642;31;19975;-59
2022/06/25 01:28:34;;;;;;;;;;;;;;;17.15;100.00;100831.00;2610317;36;20025;-58
2022/06/25 01:31:02;;;;;;;;;;;;;;;17.10;100.00;100833.41;2609350;36;19973;-59
2022/06/25 01:33:30;;;;;;;;;;;;;;;16.98;100.00;100838.41;2609120;36;19958;-58
2022/06/25 01:35:58;;;;;;;;;;;;;;;16.93;100.00;100838.09;2609905;36;19978;-59
2022/06/25 01:41:04;;;;;;;;;;;;;;;16.95;100.00;100834.19;2611990;36;19950;-59
2022/06/25 01:43:32;;;;;;;;;;;;;;;16.92;100.00;100844.56;2609640;36;20337;-57
2022/06/25 01:46:00;;;;;;;;;;;;;;;16.90;100.00;100839.31;2611566;36;20448;-57
2022/06/25 01:48:32;;;;;;;;;;;;;;;16.86;100.00;100846.09;2612070;36;19956;-58
2022/06/25 01:51:00;;;;;;;;;;;;;;;16.89;100.00;100847.66;2612442;36;19957;-58
2022/06/25 01:56:11;;;;;;;;;;;;;;;16.86;100.00;100845.22;2612111;36;19989;-58
2022/06/25 02:01:05;;;;;;;;;;;;;;;16.83;100.00;100851.91;2609040;54;19947;-58
2022/06/25 02:06:00;;;;;;;;;;;;;;;16.84;100.00;100858.16;2609590;36;19950;-60
2022/06/25 02:08:30;;;;;;;;;;;;;;;16.84;100.00;100867.16;2619776;36;19970;-59
2022/06/25 02:10:59;;;;;;;;;;;;;;;16.89;100.00;100869.41;2613139;54;19946;-61
2022/06/25 02:21:02;;;;;;;;;;;;;;;16.90;100.00;100869.22;2609683;36;19954;-58
2022/06/25 02:23:31;;;;;;;;;;;;;;;16.91;100.00;100876.34;2612594;36;20297;-62
2022/06/25 02:41:11;;;;;;;;;;;;;;;16.73;100.00;100906.44;2613179;54;19938;31
2022/06/25 02:48:52;;;;;;;;;;;;;;;16.77;100.00;100910.53;2609700;36;19946;-61
2022/06/25 02:59:03;;;;;;;;;;;;;;;16.68;100.00;100913.44;2611410;36;20405;-58
2022/06/25 03:06:30;;;;;;;;;;;;;;;16.60;100.00;100920.59;2608540;36;19966;-58
2022/06/25 03:08:59;;;;;;;;;;;;;;;16.57;100.00;100923.66;2607621;36;19958;-60
2022/06/25 03:11:27;;;;;;;;;;;;;;;16.62;100.00;100925.84;2610049;31;19957;-59
2022/06/25 03:13:55;;;;;;;;;;;;;;;16.57;100.00;100928.25;2609090;36;20364;-54
2022/06/25 03:21:23;;;;;;;;;;;;;;;16.48;100.00;100930.13;2608299;36;20766;-57
2022/06/25 03:23:51;;;;;;;;;;;;;;;16.48;100.00;100940.16;2608139;36;19974;-61
2022/06/25 03:31:25;;;;;;;;;;;;;;;16.60;100.00;100946.91;2613128;39;20386;-59
2022/06/25 03:48:51;;;;;;;;;;;;;;;16.56;100.00;100948.28;2611003;36;20034;-62
2022/06/25 04:03:51;;;;;;;;;;;;;;;16.63;100.00;100955.56;2611732;54;19952;-58
2022/06/25 04:14:10;;;;;;;;;;;;;;;16.78;100.00;100955.72;2614893;36;19951;-58
2022/06/25 04:24:00;;;;;;;;;;;;;;;16.92;100.00;100950.59;2610474;54;19950;-58
2022/06/25 04:33:49;;;;;;;;;;;;;;;17.00;100.00;100961.44;2608239;54;20490;-59
2022/06/25 04:51:21;;;;;;;;;;;;;;;17.48;100.00;100959.50;2608528;36;19947;-59
2022/06/25 05:01:13;;;;;;;;;;;;;;;17.90;100.00;100970.16;2611871;54;20658;-58
2022/06/25 05:11:06;;;;;;;;;;;;;;;18.29;100.00;100971.88;2610019;36;19995;-57
2022/06/25 05:28:30;;;;;;;;;;;;;;;18.70;100.00;100982.38;2620795;36;20034;-58
2022/06/25 05:30:58;;;;;;;;;;;;;;;18.70;100.00;100982.38;2609241;36;20495;-55
2022/06/25 05:33:26;;;;;;;;;;;;;;;18.71;100.00;100993.09;2608357;36;19985;-57
2022/06/25 05:35:54;;;;;;;;;;;;;;;18.86;100.00;100998.59;2608777;36;19954;-58
2022/06/25 05:38:23;;;;;;;;;;;;;;;18.84;100.00;101003.34;2608572;36;19966;-58
2022/06/25 05:40:51;;;;;;;;;;;;;;;19.19;100.00;100995.47;2608255;31;20425;-58
2022/06/25 05:50:41;;;;;;;;;;;;;;;19.00;100.00;101010.53;2614814;36;19994;-60
2022/06/25 06:08:13;;;;;;;;;;;;;;;18.83;100.00;101028.94;2609433;36;19950;-58
2022/06/25 06:10:41;;;;;;;;;;;;;;;19.04;100.00;101024.66;2608507;36;19955;-61
2022/06/25 06:13:09;;;;;;;;;;;;;;;19.08;100.00;101031.44;2608897;36;19950;-60
2022/06/25 06:15:37;;;;;;;;;;;;;;;18.98;100.00;101030.88;2609589;36;19985;-58
2022/06/25 06:18:05;;;;;;;;;;;;;;;19.05;100.00;101039.97;2608958;36;19951;-56
2022/06/25 06:20:33;;;;;;;;;;;;;;;19.21;100.00;101031.63;2608740;36;19977;-57
2022/06/25 06:23:01;;;;;;;;;;;;;;;19.27;100.00;101032.72;2608992;36;20437;-61
2022/06/25 06:32:59;;;;;;;;;;;;;;;19.87;100.00;101036.22;2614926;36;19955;-61
2022/06/25 06:42:55;;;;;;;;;;;;;;;20.04;100.00;101044.19;2611816;54;19994;-58
2022/06/25 06:45:23;;;;;;;;;;;;;;;19.83;100.00;101045.84;2609334;36;19966;-59
2022/06/25 06:47:52;;;;;;;;;;;;;;;19.96;100.00;101042.41;2609952;36;19946;-58
2022/06/25 06:50:22;;;;;;;;;;;;;;;20.30;100.00;101047.19;2610425;36;19977;-58
2022/06/25 07:00:20;;;;;;;;;;;;;;;20.22;100.00;101044.56;2612738;36;19958;-56
2022/06/25 07:02:48;;;;;;;;;;;;;;;20.64;100.00;101048.31;2613540;36;19950;-62
2022/06/25 07:12:40;;;;;;;;;;;;;;;20.52;100.00;101036.19;2612340;54;19954;-59
2022/06/25 07:15:09;;;;;;;;;;;;;;;21.09;100.00;101038.97;2613536;36;19946;-58
2022/06/25 07:17:37;;;;;;;;;;;;;;;21.04;100.00;101030.50;2615382;36;20264;-58
2022/06/25 07:25:11;;;;;;;;;;;;;;;21.34;100.00;101044.78;2612247;54;19945;-58
2022/06/25 07:27:44;;;;;;;;;;;;;;;20.90;100.00;101052.31;2613910;36;19953;-59
2022/06/25 07:30:15;;;;;;;;;;;;;;;21.15;100.00;101057.31;2612487;36;21077;-59
2022/06/25 07:32:43;;;;;;;;;;;;;;;20.80;100.00;101049.94;2613050;36;19950;-61
2022/06/25 07:42:45;;;;;;;;;;;;;;;20.66;100.00;101056.34;2616957;36;19950;-57
2022/06/25 07:45:14;;;;;;;;;;;;;;;20.80;100.00;101060.88;2614593;31;19954;-60
2022/06/25 07:47:42;;;;;;;;;;;;;;;20.99;100.00;101056.59;2612717;36;19951;-62
2022/06/25 07:52:51;;;;;;;;;;;;;;;20.89;100.00;101067.06;2612759;31;20410;-59
2022/06/25 07:55:19;;;;;;;;;;;;;;;21.24;100.00;101064.31;2613091;36;20344;-60
2022/06/25 07:57:50;;;;;;;;;;;;;;;21.56;100.00;101055.66;2613911;36;19954;-58
2022/06/25 08:00:18;;;;;;;;;;;;;;;21.75;100.00;101056.78;2612145;36;19954;-59
2022/06/25 08:02:47;;;;;;;;;;;;;;;21.66;100.00;101056.97;2612884;36;19958;-59
2022/06/25 08:05:16;;;;;;;;;;;;;;;22.28;100.00;101050.59;2612586;36;20516;-61
2022/06/25 08:07:45;;;;;;;;;;;;;;;22.32;100.00;101065.56;2614442;36;19969;-60
2022/06/25 08:10:16;;;;;;;;;;;;;;;21.86;100.00;101061.66;2613791;31;20434;-59
2022/06/25 08:12:44;;;;;;;;;;;;;;;21.87;100.00;101058.72;2612997;36;19958;-59
2022/06/25 08:15:16;;;;;;;;;;;;;;;21.89;100.00;101066.72;2613521;36;19977;-60
2022/06/25 08:17:44;;;;;;;;;;;;;;;21.20;100.00;101067.66;2613845;36;20391;-60
2022/06/25 08:20:13;;;;;;;;;;;;;;;21.01;100.00;101075.53;2612995;36;19951;-63
2022/06/25 08:22:41;;;;;;;;;;;;;;;21.01;100.00;101070.06;2613812;36;19974;-60
2022/06/25 08:25:10;;;;;;;;;;;;;;;20.96;100.00;101072.56;2614615;36;19973;-60
2022/06/25 08:27:46;;;;;;;;;;;;;;;21.07;100.00;101082.09;2614717;36;19994;-59
2022/06/25 08:30:17;;;;;;;;;;;;;;;21.15;100.00;101080.03;2613922;36;19951;-61
2022/06/25 08:32:45;;;;;;;;;;;;;;;20.82;100.00;101085.31;2614346;36;19951;-58
2022/06/25 08:35:13;;;;;;;;;;;;;;;20.75;100.00;101098.91;2613918;36;20539;-58
2022/06/25 08:37:42;;;;;;;;;;;;;;;20.87;100.00;101093.75;2615387;36;19953;-60
2022/06/25 08:40:11;;;;;;;;;;;;;;;20.82;100.00;101105.28;2613710;36;19953;-59
2022/06/25 08:42:39;;;;;;;;;;;;;;;21.07;100.00;101101.25;2614861;36;19954;-59
2022/06/25 08:45:08;;;;;;;;;;;;;;;21.27;100.00;101101.38;2613888;36;19946;-56
2022/06/25 08:47:44;;;;;;;;;;;;;;;20.94;100.00;101108.31;2613266;36;19957;-58
2022/06/25 08:50:14;;;;;;;;;;;;;;;21.35;100.00;101093.84;2613884;36;19997;-59
2022/06/25 08:52:45;;;;;;;;;;;;;;;21.37;100.00;101095.56;2614606;36;20343;-59
2022/06/25 08:55:16;;;;;;;;;;;;;;;21.70;100.00;101091.13;2613177;36;19985;-60
2022/06/25 08:57:44;;;;;;;;;;;;;;;22.05;100.00;101093.78;2614851;36;19950;-62
2022/06/25 09:00:13;;;;;;;;;;;;;;;21.79;100.00;101093.66;2614061;31;20008;-59
2022/06/25 09:02:43;;;;;;;;;;;;;;;21.75;100.00;101095.97;2612479;36;20436;-59
2022/06/25 09:05:11;;;;;;;;;;;;;;;21.43;100.00;101100.22;2614656;36;20433;-57
2022/06/25 09:07:40;;;;;;;;;;;;;;;21.28;100.00;101103.91;2613488;36;20006;-62
2022/06/25 09:10:08;;;;;;;;;;;;;;;21.44;100.00;101090.97;2614715;36;19977;-60
2022/06/25 09:12:37;;;;;;;;;;;;;;;21.60;100.00;101098.88;2614775;36;19953;-59
2022/06/25 09:15:19;;;;;;;;;;;;;;;22.11;100.00;101097.56;2614548;36;19955;-61
2022/06/25 09:17:51;;;;;;;;;;;;;;;22.65;100.00;101100.44;2614788;36;19958;-59
2022/06/25 09:20:20;;;;;;;;;;;;;;;22.30;100.00;101095.91;2614685;36;20357;-60
2022/06/25 09:22:58;;;;;;;;;;;;;;;21.96;100.00;101100.47;2614855;36;19947;-58
2022/06/25 09:25:27;;;;;;;;;;;;;;;21.26;100.00;101095.06;2615043;36;19962;-62
2022/06/25 09:27:56;;;;;;;;;;;;;;;21.47;100.00;101096.88;2615485;36;20037;-59
2022/06/25 09:30:25;;;;;;;;;;;;;;;21.48;100.00;101100.44;2613898;36;19951;-58
2022/06/25 09:33:16;;;;;;;;;;;;;;;21.26;100.00;101110.63;2615430;36;19957;-64
2022/06/25 09:35:44;;;;;;;;;;;;;;;21.31;100.00;101110.91;2614329;36;19950;-58
2022/06/25 09:38:14;;;;;;;;;;;;;;;21.13;100.00;101108.69;2613995;31;19946;-60
2022/06/25 09:40:48;;;;;;;;;;;;;;;21.22;100.00;101110.22;2615264;36;20073;-59
2022/06/25 09:43:17;;;;;;;;;;;;;;;21.87;100.00;101101.72;2615291;36;19954;-59
2022/06/25 09:45:47;;;;;;;;;;;;;;;22.18;100.00;101109.41;2614667;36;19975;-59
2022/06/25 09:48:25;;;;;;;;;;;;;;;21.97;100.00;101102.19;2614591;36;19953;-58
2022/06/25 09:51:09;;;;;;;;;;;;;;;22.33;100.00;101109.25;2615410;36;19946;-58
2022/06/25 09:53:38;;;;;;;;;;;;;;;22.35;100.00;101109.91;2613171;36;20380;-60
2022/06/25 09:56:06;;;;;;;;;;;;;;;22.37;100.00;101116.00;2614299;31;20356;-59
2022/06/25 09:58:35;;;;;;;;;;;;;;;22.90;100.00;101106.97;2613751;36;19974;-59
2022/06/25 10:01:06;;;;;;;;;;;;;;;23.01;100.00;101112.88;2614615;54;20073;-59
2022/06/25 10:03:38;;;;;;;;;;;;;;;22.09;100.00;101105.16;2613621;36;19946;-58
2022/06/25 10:06:07;;;;;;;;;;;;;;;22.08;100.00;101117.16;2614550;32;19957;-59
2022/06/25 10:16:00;;;;;;;;;;;;;;;21.65;100.00;101103.72;2612702;54;19954;-58
2022/06/25 10:18:31;;;;;;;;;;;;;;;21.98;100.00;101120.31;2613693;36;20856;-58
2022/06/25 10:28:36;;;;;;;;;;;;;;;21.40;100.00;101122.53;2614333;36;20293;-58
2022/06/25 10:31:07;;;;;;;;;;;;;;;21.43;100.00;101111.19;2619717;36;19946;-57
2022/06/25 10:33:38;;;;;;;;;;;;;;;21.48;100.00;101114.13;2614848;36;19961;-59
2022/06/25 10:43:41;;;;;;;;;;;;;;;23.04;100.00;101106.94;2613409;39;20371;-59
2022/06/25 10:46:22;;;;;;;;;;;;;;;22.57;100.00;101113.31;2615166;36;20038;-58
2022/06/25 10:48:52;;;;;;;;;;;;;;;22.51;100.00;101107.78;2615630;36;20348;-60
2022/06/25 10:51:29;;;;;;;;;;;;;;;22.52;100.00;101117.72;2611169;36;19954;-64
2022/06/25 10:53:57;;;;;;;;;;;;;;;22.75;100.00;101111.84;2614032;36;19981;-58
2022/06/25 11:11:12;;;;;;;;;;;;;;;21.88;100.00;101122.59;2612693;54;19938;-56
2022/06/25 11:13:44;;;;;;;;;;;;;;;21.94;100.00;101124.50;2614017;36;19954;-59
2022/06/25 11:16:15;;;;;;;;;;;;;;;21.61;100.00;101130.69;2613870;36;19951;-62
2022/06/25 11:18:47;;;;;;;;;;;;;;;21.70;100.00;101128.59;2613449;36;19981;-61
2022/06/25 11:21:32;;;;;;;;;;;;;;;21.75;100.00;101130.75;2613747;36;20341;-62
2022/06/25 11:24:07;;;;;;;;;;;;;;;21.99;100.00;101119.25;2614893;36;20448;-58
2022/06/25 11:29:21;;;;;;;;;;;;;;;22.75;100.00;101131.88;2614411;36;20494;-61
2022/06/25 11:31:51;;;;;;;;;;;;;;;22.86;100.00;101132.31;2613185;36;19959;-59
2022/06/25 11:34:19;;;;;;;;;;;;;;;23.32;100.00;101123.22;2614428;36;19950;-61
2022/06/25 11:36:48;;;;;;;;;;;;;;;23.20;100.00;101127.66;2615498;31;19946;-60
2022/06/25 11:39:17;;;;;;;;;;;;;;;23.14;100.00;101121.13;2614603;36;19954;-59
2022/06/25 11:41:51;;;;;;;;;;;;;;;22.64;100.00;101123.44;2614318;36;19950;-62
2022/06/25 11:44:19;;;;;;;;;;;;;;;23.35;100.00;101127.44;2614214;36;19974;-58
2022/06/25 11:46:47;;;;;;;;;;;;;;;23.68;100.00;101124.59;2613990;36;19950;-59
2022/06/25 11:49:16;;;;;;;;;;;;;;;23.60;100.00;101127.56;2613879;36;19950;-62
2022/06/25 11:51:48;;;;;;;;;;;;;;;23.41;100.00;101127.44;2613067;36;19947;-60
2022/06/25 11:54:16;;;;;;;;;;;;;;;23.51;100.00;101124.25;2614252;36;19950;-58
2022/06/25 11:56:55;;;;;;;;;;;;;;;23.38;100.00;101127.00;2614256;36;19974;-61
2022/06/25 11:59:26;;;;;;;;;;;;;;;23.30;100.00;101117.09;2614304;36;19947;-59
2022/06/25 12:01:55;;;;;;;;;;;;;;;23.34;100.00;101125.75;2615281;36;19977;-59
2022/06/25 12:04:23;;;;;;;;;;;;;;;23.56;100.00;101126.34;2614777;36;19951;-60
2022/06/25 12:06:52;;;;;;;;;;;;;;;23.89;100.00;101122.63;2613269;36;19938;-59
2022/06/25 12:09:21;;;;;;;;;;;;;;;24.06;100.00;101121.09;2615253;36;19971;-59
2022/06/25 12:11:56;;;;;;;;;;;;;;;23.95;100.00;101119.00;2614764;36;19950;-61
2022/06/25 12:14:28;;;;;;;;;;;;;;;23.73;100.00;101121.19;2611701;36;19946;-59
2022/06/25 12:16:57;;;;;;;;;;;;;;;23.73;100.00;101119.31;2613390;31;19986;-58
2022/06/25 12:19:25;;;;;;;;;;;;;;;23.91;100.00;101102.13;2613610;36;19985;-61
2022/06/25 12:21:53;;;;;;;;;;;;;;;24.21;100.00;101111.69;2613711;36;19957;-61
2022/06/25 12:24:23;;;;;;;;;;;;;;;23.71;100.00;101118.66;2615029;36;20340;-58
2022/06/25 12:26:55;;;;;;;;;;;;;;;23.98;100.00;101113.06;2615553;36;19982;-62
2022/06/25 12:29:26;;;;;;;;;;;;;;;24.39;100.00;101114.53;2613671;36;19957;-58
2022/06/25 12:32:01;;;;;;;;;;;;;;;23.84;100.00;101122.44;2614138;36;19954;-61
2022/06/25 12:34:29;;;;;;;;;;;;;;;23.34;100.00;101120.25;2614401;36;19954;-62
2022/06/25 12:36:59;;;;;;;;;;;;;;;23.50;100.00;101117.06;2615332;36;19950;-58
2022/06/25 12:39:34;;;;;;;;;;;;;;;23.27;100.00;101125.75;2615194;36;19955;-61
2022/06/25 12:42:10;;;;;;;;;;;;;;;22.80;100.00;101127.66;2614896;36;19989;-60
2022/06/25 12:44:39;;;;;;;;;;;;;;;22.36;100.00;101151.88;2614828;36;19958;-61
2022/06/25 12:47:10;;;;;;;;;;;;;;;22.30;100.00;101152.66;2612770;36;20448;-62
2022/06/25 12:49:46;;;;;;;;;;;;;;;22.23;100.00;101160.84;2613824;36;19951;-60
2022/06/25 12:52:15;;;;;;;;;;;;;;;21.96;100.00;101163.50;2614867;31;19954;-59
2022/06/25 12:54:44;;;;;;;;;;;;;;;22.13;100.00;101166.75;2614990;36;19954;-64
2022/06/25 12:57:12;;;;;;;;;;;;;;;21.98;100.00;101175.13;2613944;36;20439;-58
2022/06/25 13:04:44;;;;;;;;;;;;;;;21.64;100.00;101190.56;2612760;54;19938;-62
2022/06/25 13:07:17;;;;;;;;;;;;;;;21.60;100.00;101186.53;2612855;36;19973;-61
2022/06/25 13:09:48;;;;;;;;;;;;;;;21.66;100.00;101182.13;2611926;36;21299;-60
2022/06/25 13:19:49;;;;;;;;;;;;;;;21.72;100.00;101180.47;2613106;54;19958;-57
2022/06/25 13:29:44;;;;;;;;;;;;;;;22.15;100.00;101183.00;2610238;54;19974;-60
2022/06/25 13:32:16;;;;;;;;;;;;;;;21.91;100.00;101174.25;2615836;36;20448;-63
2022/06/25 13:34:44;;;;;;;;;;;;;;;21.81;100.00;101176.53;2612134;36;19950;-59
2022/06/25 13:37:15;;;;;;;;;;;;;;;21.55;100.00;101180.78;2614403;36;19946;-58
2022/06/25 13:39:43;;;;;;;;;;;;;;;21.74;100.00;101179.22;2613684;36;20344;-61
2022/06/25 13:42:11;;;;;;;;;;;;;;;21.90;100.00;101178.03;2614115;36;19946;-61
2022/06/25 13:44:39;;;;;;;;;;;;;;;22.51;100.00;101171.75;2612936;36;20424;-58
2022/06/25 13:47:08;;;;;;;;;;;;;;;22.80;100.00;101155.09;2614059;36;20046;-59
2022/06/25 13:49:38;;;;;;;;;;;;;;;22.55;100.00;101147.47;2612234;36;20447;-59
2022/06/25 13:52:06;;;;;;;;;;;;;;;22.88;100.00;101153.00;2614878;36;20436;-62
2022/06/25 13:54:37;;;;;;;;;;;;;;;22.72;100.00;101154.25;2615122;36;19994;-59
2022/06/25 14:04:24;;;;;;;;;;;;;;;21.94;100.00;101154.66;2611787;36;20079;-58
2022/06/25 14:06:52;;;;;;;;;;;;;;;22.07;100.00;101153.00;2612648;36;19951;-59
2022/06/25 14:09:20;;;;;;;;;;;;;;;22.19;100.00;101148.63;2613744;36;19977;-58
2022/06/25 14:11:51;;;;;;;;;;;;;;;22.10;100.00;101160.81;2614181;36;19939;-59
2022/06/25 14:14:22;;;;;;;;;;;;;;;21.88;100.00;101160.97;2613437;36;19946;-58
2022/06/25 14:16:51;;;;;;;;;;;;;;;21.77;100.00;101156.06;2613930;36;19950;-63
2022/06/25 14:26:35;;;;;;;;;;;;;;;22.70;100.00;101156.38;2611906;36;19954;-58
2022/06/25 14:29:06;;;;;;;;;;;;;;;23.52;100.00;101152.53;2614041;36;19969;-58
2022/06/25 14:31:36;;;;;;;;;;;;;;;23.96;100.00;101145.44;2614810;36;19947;-58
2022/06/25 14:34:04;;;;;;;;;;;;;;;23.98;100.00;101134.22;2613245;36;19947;-62
2022/06/25 14:44:36;;;;;;;;;;;;;;;24.69;100.00;101146.97;2614628;36;19954;-61
2022/06/25 14:54:33;;;;;;;;;;;;;;;26.06;100.00;101123.13;2612776;54;20073;-61
2022/06/25 14:57:01;;;;;;;;;;;;;;;25.04;100.00;101127.16;2615314;36;19954;-58
2022/06/25 14:59:29;;;;;;;;;;;;;;;25.97;100.00;101118.97;2614676;36;19961;-59
2022/06/25 15:02:00;;;;;;;;;;;;;;;26.91;100.00;101119.31;2614389;36;19955;-61
2022/06/25 15:11:54;;;;;;;;;;;;;;;26.80;100.00;101100.78;2612797;54;19978;-60
2022/06/25 15:14:22;;;;;;;;;;;;;;;26.99;100.00;101100.69;2613298;36;19952;-62
2022/06/25 15:16:50;;;;;;;;;;;;;;;26.00;100.00;101099.22;2613956;31;19976;-60
2022/06/25 15:19:21;;;;;;;;;;;;;;;26.13;100.00;101106.47;2613520;36;20463;-59
2022/06/25 15:24:29;;;;;;;;;;;;;;;27.01;100.00;101095.75;2619005;36;19998;-59
2022/06/25 15:26:58;;;;;;;;;;;;;;;26.49;100.00;101088.94;2615141;36;19946;-59
2022/06/25 15:29:26;;;;;;;;;;;;;;;27.05;100.00;101096.97;2612117;36;20002;-59
2022/06/25 15:31:54;;;;;;;;;;;;;;;26.70;100.00;101086.75;2611261;36;19969;-61
2022/06/25 15:34:24;;;;;;;;;;;;;;;26.54;100.00;101096.53;2611903;36;20809;-59
2022/06/25 15:36:52;;;;;;;;;;;;;;;26.46;100.00;101089.44;2614899;36;19954;-62
2022/06/25 15:39:20;;;;;;;;;;;;;;;26.00;100.00;101099.22;2615746;36;19985;-58
2022/06/25 15:44:20;;;;;;;;;;;;;;;25.83;100.00;101083.28;2614772;36;19939;-61
2022/06/25 15:46:48;;;;;;;;;;;;;;;25.52;100.00;101076.06;2614159;36;19977;-59
2022/06/25 15:49:27;;;;;;;;;;;;;;;25.81;100.00;101071.66;2615505;36;19947;-59
2022/06/25 15:51:58;;;;;;;;;;;;;;;25.63;100.00;101071.69;2615563;36;19946;-59
2022/06/25 15:54:26;;;;;;;;;;;;;;;25.66;100.00;101068.47;2618801;36;19946;-58
2022/06/25 15:56:54;;;;;;;;;;;;;;;26.34;100.00;101063.69;2615726;36;19973;-58
2022/06/25 15:59:31;;;;;;;;;;;;;;;26.29;100.00;101056.13;2615563;36;20448;-62
2022/06/25 16:02:00;;;;;;;;;;;;;;;26.71;100.00;101052.53;2614353;54;20474;-59
2022/06/25 16:04:32;;;;;;;;;;;;;;;26.98;100.00;101052.06;2615127;36;19954;-58
2022/06/25 16:07:04;;;;;;;;;;;;;;;27.24;100.00;101042.41;2613803;31;20058;-60
2022/06/25 16:09:33;;;;;;;;;;;;;;;27.93;100.00;101042.44;2608701;39;20364;-61
2022/06/25 16:12:04;;;;;;;;;;;;;;;28.08;100.00;101049.41;2615634;31;20082;-59
2022/06/25 16:20:09;;;;;;;;;;;;;;;26.16;100.00;101037.03;2652371;36;19950;-59
2022/06/25 16:22:40;;;;;;;;;;;;;;;25.51;100.00;101044.91;2614394;36;19973;-59
2022/06/25 16:25:09;;;;;;;;;;;;;;;25.46;100.00;101044.75;2615213;36;20359;-62
2022/06/25 16:27:37;;;;;;;;;;;;;;;25.32;100.00;101045.97;2613353;36;20416;-59
2022/06/25 16:32:37;;;;;;;;;;;;;;;24.16;100.00;101042.75;2613658;36;19951;-58
2022/06/25 16:35:06;;;;;;;;;;;;;;;24.07;100.00;101044.91;2614557;54;19953;-62
2022/06/25 16:37:34;;;;;;;;;;;;;;;24.05;100.00;101053.41;2614210;36;19954;-63
2022/06/25 16:40:05;;;;;;;;;;;;;;;23.97;100.00;101056.41;2613250;36;19970;-58
2022/06/25 16:50:11;;;;;;;;;;;;;;;23.21;100.00;101057.97;2618426;36;19943;-62
2022/06/25 16:52:41;;;;;;;;;;;;;;;23.07;100.00;101057.09;2614141;36;20390;-63
2022/06/25 16:55:12;;;;;;;;;;;;;;;22.93;100.00;101056.31;2615040;31;19950;-59
2022/06/25 17:00:08;;;;;;;;;;;;;;;22.86;100.00;101050.81;2621295;36;19985;-59
2022/06/25 17:05:03;;;;;;;;;;;;;;;22.80;100.00;101039.84;2619703;36;19979;-58
2022/06/25 17:17:53;;;;;;;;;;;;;;;22.44;100.00;101058.44;2613649;54;20424;-58
2022/06/25 17:20:30;;;;;;;;;;;;;;;22.33;100.00;101059.88;2619401;36;21012;-60
2022/06/25 17:22:58;;;;;;;;;;;;;;;22.09;100.00;101064.03;2614623;36;19950;-58
2022/06/25 17:25:26;;;;;;;;;;;;;;;22.00;100.00;101057.91;2615263;36;20396;-59
2022/06/25 17:27:55;;;;;;;;;;;;;;;21.92;100.00;101069.03;2614187;36;19966;-58
2022/06/25 17:30:26;;;;;;;;;;;;;;;21.80;100.00;101059.75;2615203;36;20328;-61
2022/06/25 17:32:57;;;;;;;;;;;;;;;21.81;100.00;101065.03;2614225;36;20475;-60
2022/06/25 17:47:51;;;;;;;;;;;;;;;21.62;100.00;101069.38;2614116;39;20368;-59
2022/06/25 17:55:29;;;;;;;;;;;;;;;21.74;100.00;101079.75;2612729;54;19963;-58
2022/06/25 18:07:59;;;;;;;;;;;;;;;21.34;100.00;101096.81;2612543;47;19939;-58
2022/06/25 18:10:32;;;;;;;;;;;;;;;21.53;100.00;101095.25;2611449;36;19950;-59
2022/06/25 18:13:00;;;;;;;;;;;;;;;21.59;100.00;101094.44;2615182;36;20379;-61
2022/06/25 18:23:05;;;;;;;;;;;;;;;21.17;100.00;101104.47;2619771;36;19974;-59
2022/06/25 18:25:36;;;;;;;;;;;;;;;21.19;100.00;101116.09;2615493;36;20468;-60
2022/06/25 18:28:04;;;;;;;;;;;;;;;20.95;100.00;101136.50;2615144;36;19951;-59
2022/06/25 18:30:32;;;;;;;;;;;;;;;20.55;100.00;101136.13;2614326;36;20050;-59
2022/06/25 18:40:29;;;;;;;;;;;;;;;20.82;100.00;101134.53;2613286;36;19947;-58
2022/06/25 18:43:00;;;;;;;;;;;;;;;20.60;100.00;101139.16;2614442;36;20440;-59
2022/06/25 19:00:13;;;;;;;;;;;;;;;20.41;100.00;101157.03;2613014;36;19957;-58
2022/06/25 19:02:48;;;;;;;;;;;;;;;20.35;100.00;101164.13;2614818;54;19950;-58
2022/06/25 19:05:20;;;;;;;;;;;;;;;20.41;100.00;101168.81;2614750;36;19947;-57
2022/06/25 19:10:28;;;;;;;;;;;;;;;20.33;100.00;101159.88;2613960;36;20054;-59
2022/06/25 19:12:58;;;;;;;;;;;;;;;20.29;100.00;101163.00;2613956;54;20390;-56
2022/06/25 19:15:33;;;;;;;;;;;;;;;20.17;100.00;101161.81;2614877;36;19946;-58
2022/06/25 19:18:01;;;;;;;;;;;;;;;20.04;100.00;101165.25;2615223;54;19977;-58
2022/06/25 19:20:31;;;;;;;;;;;;;;;20.01;100.00;101173.81;2617533;31;19946;-59
2022/06/25 19:25:32;;;;;;;;;;;;;;;19.89;100.00;101184.38;2616421;36;19971;-59
2022/06/25 19:28:03;;;;;;;;;;;;;;;19.53;100.00;101187.81;2613362;36;19954;-57
2022/06/25 19:30:38;;;;;;;;;;;;;;;19.61;100.00;101195.94;2613620;36;19986;-58
2022/06/25 19:35:38;;;;;;;;;;;;;;;19.37;100.00;101204.38;2614178;54;19957;-57
2022/06/25 19:38:07;;;;;;;;;;;;;;;19.26;100.00;101202.97;2617204;36;19996;-57
2022/06/25 19:40:35;;;;;;;;;;;;;;;19.21;100.00;101199.94;2614395;36;20368;-57
2022/06/25 19:43:03;;;;;;;;;;;;;;;19.19;100.00;101197.38;2613381;36;19985;-59
2022/06/25 19:45:38;;;;;;;;;;;;;;;19.06;100.00;101197.16;2614799;36;19950;-59
2022/06/25 19:48:07;;;;;;;;;;;;;;;18.98;100.00;101199.97;2613462;36;20017;-57
2022/06/25 19:50:35;;;;;;;;;;;;;;;18.97;100.00;101196.38;2614696;36;19969;-59
2022/06/25 19:53:03;;;;;;;;;;;;;;;19.05;100.00;101203.63;2614434;36;19947;-58
2022/06/25 19:55:31;;;;;;;;;;;;;;;19.03;100.00;101203.00;2613864;36;19954;-59
2022/06/25 19:57:59;;;;;;;;;;;;;;;19.17;100.00;101204.91;2613607;36;19981;-59
2022/06/25 20:00:27;;;;;;;;;;;;;;;19.24;100.00;101194.09;2615159;31;20348;-58
2022/06/25 20:02:58;;;;;;;;;;;;;;;19.26;100.00;101192.88;2613403;36;19953;-59
2022/06/25 20:05:26;;;;;;;;;;;;;;;19.20;100.00;101193.63;2614470;36;19957;-59
2022/06/25 20:07:54;;;;;;;;;;;;;;;19.19;100.00;101191.94;2613717;47;19981;-59
2022/06/25 20:10:22;;;;;;;;;;;;;;;19.15;100.00;101185.13;2613235;36;19950;-59
2022/06/25 20:15:19;;;;;;;;;;;;;;;19.32;100.00;101185.84;2608692;36;19958;-59
2022/06/25 20:17:48;;;;;;;;;;;;;;;19.36;100.00;101191.75;2614418;36;20356;-59
2022/06/25 20:22:52;;;;;;;;;;;;;;;19.32;100.00;101188.56;2625311;36;19960;-59
2022/06/25 20:25:21;;;;;;;;;;;;;;;19.39;100.00;101180.47;2616642;31;19958;-59
2022/06/25 20:27:49;;;;;;;;;;;;;;;19.38;100.00;101189.72;2615329;36;19951;-58
2022/06/25 20:30:17;;;;;;;;;;;;;;;19.36;100.00;101191.75;2618358;36;19950;-60
2022/06/25 20:38:03;;;;;;;;;;;;;;;19.48;100.00;101190.28;2614180;36;19958;-57
2022/06/25 20:40:32;;;;;;;;;;;;;;;19.40;100.00;101190.34;2616010;36;19958;-58